Time;durP1;ratioP1;P1;durP2;ratioP2;P2;SDS_P1;SDS_P2;PMS_P1;PMS_P2;Temp;Humidity;BMP_temperature;BMP_pressure;BME280_temperature;BME280_humidity;BME280_pressure;Samples;Min_cycle;Max_cycle;Signal;HPM_P1;HPM_P2
2021/07/04 00:01:24;;;;;;;5.85;3.60;;;;;;;;;;6214030;23;20040;-84
2021/07/04 00:03:50;;;;;;;5.32;3.10;;;;;;;;;;6212882;23;20052;-84
2021/07/04 00:06:17;;;;;;;4.25;3.05;;;;;;;;;;6213850;23;20391;-84
2021/07/04 00:08:44;;;;;;;6.15;3.05;;;;;;;;;;6214097;23;20035;-84
2021/07/04 00:11:10;;;;;;;4.38;3.08;;;;;;;;;;6214839;23;20028;-84
2021/07/04 00:13:59;;;;;;;4.68;3.10;;;;;;;;;;6212406;23;20028;-84
2021/07/04 00:16:25;;;;;;;5.53;3.00;;;;;;;;;;6214137;23;20416;-84
2021/07/04 00:18:52;;;;;;;5.32;3.60;;;;;;;;;;6213677;23;20029;-84
2021/07/04 00:21:18;;;;;;;4.32;3.00;;;;;;;;;;6219416;23;20239;-84
2021/07/04 00:23:45;;;;;;;4.90;3.22;;;;;;;;;;6243387;23;20031;-84
2021/07/04 00:26:15;;;;;;;4.18;2.92;;;;;;;;;;6216471;23;20024;-84
2021/07/04 00:28:41;;;;;;;5.97;3.10;;;;;;;;;;6243491;23;20028;-84
2021/07/04 00:31:08;;;;;;;3.00;2.70;;;;;;;;;;6245190;23;20028;-84
2021/07/04 00:33:36;;;;;;;4.90;2.65;;;;;;;;;;6219705;23;20028;-84
2021/07/04 00:36:03;;;;;;;6.45;3.00;;;;;;;;;;6218520;23;20110;-84
2021/07/04 00:38:29;;;;;;;5.30;3.22;;;;;;;;;;6219131;23;20288;-84
2021/07/04 00:40:56;;;;;;;4.18;2.80;;;;;;;;;;6244221;23;20028;-85
2021/07/04 00:43:23;;;;;;;4.20;2.85;;;;;;;;;;6244128;23;20036;-84
2021/07/04 00:45:49;;;;;;;4.85;2.95;;;;;;;;;;6218902;23;20028;-85
2021/07/04 00:48:16;;;;;;;4.80;3.30;;;;;;;;;;6219630;23;20028;-84
2021/07/04 00:50:43;;;;;;;5.97;3.35;;;;;;;;;;6244108;23;20149;-85
2021/07/04 00:53:09;;;;;;;4.65;3.20;;;;;;;;;;6216900;23;20024;-84
2021/07/04 00:55:39;;;;;;;4.95;3.70;;;;;;;;;;6217413;23;20425;-85
2021/07/04 00:58:06;;;;;;;5.20;3.40;;;;;;;;;;6244795;23;20047;-84
2021/07/04 01:00:33;;;;;;;3.60;2.92;;;;;;;;;;6216818;23;20034;-84
2021/07/04 01:03:00;;;;;;;4.97;2.72;;;;;;;;;;6218218;23;20051;-84
2021/07/04 01:05:32;;;;;;;3.35;3.05;;;;;;;;;;6220636;23;20024;-83
2021/07/04 01:08:00;;;;;;;6.38;2.90;;;;;;;;;;6248175;23;20125;-84
2021/07/04 01:10:28;;;;;;;5.60;3.00;;;;;;;;;;6260638;22;20032;-84
2021/07/04 01:12:55;;;;;;;4.82;3.08;;;;;;;;;;6264064;23;20016;-84
2021/07/04 01:15:25;;;;;;;7.25;3.55;;;;;;;;;;6249266;23;20208;-84
2021/07/04 01:17:53;;;;;;;5.45;3.28;;;;;;;;;;6248216;23;20084;-84
2021/07/04 01:20:26;;;;;;;4.68;3.58;;;;;;;;;;6220870;23;20024;-84
2021/07/04 01:23:02;;;;;;;3.47;3.17;;;;;;;;;;6247032;23;20028;-84
2021/07/04 01:25:31;;;;;;;4.68;3.53;;;;;;;;;;6220901;23;20481;-84
2021/07/04 01:27:57;;;;;;;9.93;3.38;;;;;;;;;;6220093;23;20376;-83
2021/07/04 01:30:27;;;;;;;5.28;3.53;;;;;;;;;;6222646;23;20386;-84
2021/07/04 01:32:54;;;;;;;7.55;3.70;;;;;;;;;;6246017;23;20036;-84
2021/07/04 01:35:21;;;;;;;4.60;3.30;;;;;;;;;;6220781;23;20388;-84
2021/07/04 01:37:54;;;;;;;4.43;3.40;;;;;;;;;;6220528;23;20024;-84
2021/07/04 01:40:21;;;;;;;6.30;3.60;;;;;;;;;;6222233;23;20024;-84
2021/07/04 01:42:48;;;;;;;4.70;3.55;;;;;;;;;;6247835;23;20064;-84
2021/07/04 01:45:16;;;;;;;4.93;3.35;;;;;;;;;;6219580;23;20024;-84
2021/07/04 01:47:44;;;;;;;5.75;3.40;;;;;;;;;;6220628;23;20024;-84
2021/07/04 01:50:12;;;;;;;6.45;3.90;;;;;;;;;;6220990;23;20306;-84
2021/07/04 01:52:38;;;;;;;5.70;3.75;;;;;;;;;;6246793;23;20028;-84
2021/07/04 01:55:07;;;;;;;5.55;3.60;;;;;;;;;;6220492;23;20034;-84
2021/07/04 01:57:34;;;;;;;4.60;3.83;;;;;;;;;;6219857;23;20409;-84
2021/07/04 02:00:01;;;;;;;4.05;3.47;;;;;;;;;;6219778;23;20111;-84
2021/07/04 02:02:31;;;;;;;4.72;3.38;;;;;;;;;;6220714;23;20302;-84
2021/07/04 02:04:57;;;;;;;7.05;3.80;;;;;;;;;;6221502;23;20101;-84
2021/07/04 02:07:24;;;;;;;6.97;3.80;;;;;;;;;;6245995;23;20302;-84
2021/07/04 02:09:50;;;;;;;5.38;3.90;;;;;;;;;;6246879;23;20031;-84
2021/07/04 02:12:18;;;;;;;6.25;3.40;;;;;;;;;;6247434;23;20028;-84
2021/07/04 02:14:44;;;;;;;5.32;3.88;;;;;;;;;;6223843;23;20027;-85
2021/07/04 02:17:11;;;;;;;4.82;3.63;;;;;;;;;;6249363;23;20032;-85
2021/07/04 02:19:39;;;;;;;5.45;3.88;;;;;;;;;;6220223;23;20024;-84
2021/07/04 02:22:07;;;;;;;6.63;3.97;;;;;;;;;;6225190;23;20024;-84
2021/07/04 02:24:34;;;;;;;5.95;4.22;;;;;;;;;;6228210;23;20028;-85
2021/07/04 02:27:01;;;;;;;5.40;4.30;;;;;;;;;;6254912;23;20208;-85
2021/07/04 02:29:27;;;;;;;5.55;4.18;;;;;;;;;;6223695;23;20099;-85
2021/07/04 02:31:54;;;;;;;5.60;3.53;;;;;;;;;;6222484;23;20165;-85
2021/07/04 02:34:21;;;;;;;8.52;3.95;;;;;;;;;;6248862;23;20044;-84
2021/07/04 02:36:47;;;;;;;5.43;3.97;;;;;;;;;;6247246;23;20450;-85
2021/07/04 02:39:14;;;;;;;6.20;4.55;;;;;;;;;;6246756;23;20036;-85
2021/07/04 02:41:41;;;;;;;4.18;3.78;;;;;;;;;;6225903;23;20182;-84
2021/07/04 02:44:08;;;;;;;8.13;3.65;;;;;;;;;;6239101;22;20012;-85
2021/07/04 02:46:36;;;;;;;5.57;4.43;;;;;;;;;;6262206;23;20028;-84
2021/07/04 02:49:02;;;;;;;5.40;4.18;;;;;;;;;;6221687;23;20349;-84
2021/07/04 02:51:29;;;;;;;6.57;4.38;;;;;;;;;;6220618;23;20067;-84
2021/07/04 02:53:59;;;;;;;5.45;3.92;;;;;;;;;;6222010;23;20028;-84
2021/07/04 02:56:45;;;;;;;6.75;4.88;;;;;;;;;;6246822;23;20032;-85
2021/07/04 02:59:12;;;;;;;4.68;3.90;;;;;;;;;;6222232;23;20421;-84
2021/07/04 03:01:38;;;;;;;6.00;4.63;;;;;;;;;;6247601;23;20024;-84
2021/07/04 03:04:07;;;;;;;6.93;5.18;;;;;;;;;;6247295;23;20024;-84
2021/07/04 03:06:34;;;;;;;8.35;5.13;;;;;;;;;;6246570;23;20050;-84
2021/07/04 03:09:00;;;;;;;7.28;5.05;;;;;;;;;;6246777;23;20028;-84
2021/07/04 03:11:27;;;;;;;5.63;4.53;;;;;;;;;;6249101;23;20175;-84
2021/07/04 03:13:54;;;;;;;6.35;4.63;;;;;;;;;;6221749;23;20325;-84
2021/07/04 03:16:20;;;;;;;6.63;4.50;;;;;;;;;;6221748;23;20087;-84
2021/07/04 03:18:47;;;;;;;6.93;4.20;;;;;;;;;;6247504;23;20024;-85
2021/07/04 03:21:13;;;;;;;4.97;3.67;;;;;;;;;;6220812;23;20055;-84
2021/07/04 03:23:40;;;;;;;7.15;4.15;;;;;;;;;;6220187;23;20086;-84
2021/07/04 03:26:06;;;;;;;7.90;4.90;;;;;;;;;;6221423;23;20055;-84
2021/07/04 03:28:33;;;;;;;6.07;4.28;;;;;;;;;;6222225;23;20088;-84
2021/07/04 03:30:59;;;;;;;6.72;4.50;;;;;;;;;;6248810;23;20027;-86
2021/07/04 03:33:26;;;;;;;6.85;3.78;;;;;;;;;;6249479;23;20357;-86
2021/07/04 03:35:56;;;;;;;5.47;4.15;;;;;;;;;;6221224;23;20135;-84
2021/07/04 03:38:22;;;;;;;6.50;4.95;;;;;;;;;;6247800;23;20028;-85
2021/07/04 03:40:49;;;;;;;7.57;4.97;;;;;;;;;;6247522;23;20078;-85
2021/07/04 03:43:18;;;;;;;8.50;5.15;;;;;;;;;;6219985;23;20433;-85
2021/07/04 03:45:45;;;;;;;5.88;4.22;;;;;;;;;;6219114;23;20109;-85
2021/07/04 03:48:11;;;;;;;6.30;4.78;;;;;;;;;;6219349;23;20024;-84
2021/07/04 03:50:41;;;;;;;6.47;5.15;;;;;;;;;;6247617;23;20149;-85
2021/07/04 03:53:11;;;;;;;6.88;4.50;;;;;;;;;;6245471;23;20028;-85
2021/07/04 03:55:37;;;;;;;8.18;5.00;;;;;;;;;;6217805;23;20028;-85
2021/07/04 03:58:03;;;;;;;6.53;5.60;;;;;;;;;;6246364;23;20028;-85
2021/07/04 04:00:30;;;;;;;7.95;6.00;;;;;;;;;;6220040;23;20035;-85
2021/07/04 04:02:57;;;;;;;11.88;5.60;;;;;;;;;;6220755;23;20028;-85
2021/07/04 04:05:23;;;;;;;8.40;6.22;;;;;;;;;;6222715;23;20120;-84
2021/07/04 04:07:49;;;;;;;10.68;6.03;;;;;;;;;;6249880;23;20055;-84
2021/07/04 04:10:16;;;;;;;6.65;5.65;;;;;;;;;;6248616;23;20098;-85
2021/07/04 04:12:43;;;;;;;11.00;6.57;;;;;;;;;;6222446;23;20339;-85
2021/07/04 04:15:11;;;;;;;7.68;5.75;;;;;;;;;;6222359;23;20024;-83
2021/07/04 04:17:38;;;;;;;7.88;6.28;;;;;;;;;;6249642;23;20071;-84
2021/07/04 04:20:05;;;;;;;10.48;6.28;;;;;;;;;;6247622;23;20024;-84
2021/07/04 04:22:35;;;;;;;9.10;5.72;;;;;;;;;;6248774;23;20028;-84
2021/07/04 04:25:02;;;;;;;12.27;5.90;;;;;;;;;;6220671;23;20341;-84
2021/07/04 04:27:40;;;;;;;10.57;6.38;;;;;;;;;;6223219;23;20106;-84
2021/07/04 04:30:07;;;;;;;10.73;6.82;;;;;;;;;;6221347;23;20086;-83
2021/07/04 04:32:33;;;;;;;10.35;6.53;;;;;;;;;;6245775;23;20032;-84
2021/07/04 04:35:00;;;;;;;8.23;6.18;;;;;;;;;;6248613;23;20023;-84
2021/07/04 04:37:39;;;;;;;11.13;6.93;;;;;;;;;;6249149;23;20024;-84
2021/07/04 04:40:06;;;;;;;8.95;6.57;;;;;;;;;;6223337;23;20024;-83
2021/07/04 04:42:34;;;;;;;8.75;6.32;;;;;;;;;;6222479;23;20024;-84
2021/07/04 04:45:00;;;;;;;11.30;6.88;;;;;;;;;;6248957;23;20085;-84
2021/07/04 04:47:33;;;;;;;8.05;6.68;;;;;;;;;;6222611;23;20096;-84
2021/07/04 04:50:00;;;;;;;8.30;6.07;;;;;;;;;;6222206;23;20028;-84
2021/07/04 04:52:26;;;;;;;10.02;6.43;;;;;;;;;;6249311;23;20028;-84
2021/07/04 04:54:56;;;;;;;8.80;6.88;;;;;;;;;;6223060;23;20028;-84
2021/07/04 04:57:22;;;;;;;12.90;6.85;;;;;;;;;;6248049;23;20035;-84
2021/07/04 04:59:49;;;;;;;8.35;6.57;;;;;;;;;;6220880;23;20024;-85
2021/07/04 05:02:15;;;;;;;8.65;6.45;;;;;;;;;;6248045;23;20024;-84
2021/07/04 05:04:42;;;;;;;7.97;6.68;;;;;;;;;;6222245;23;20023;-85
2021/07/04 05:07:09;;;;;;;9.52;6.30;;;;;;;;;;6248491;23;20035;-84
2021/07/04 05:09:36;;;;;;;8.80;6.10;;;;;;;;;;6247754;23;20031;-84
2021/07/04 05:12:04;;;;;;;10.18;6.80;;;;;;;;;;6220395;23;20155;-84
2021/07/04 05:14:34;;;;;;;10.70;7.10;;;;;;;;;;6219807;23;20039;-84
2021/07/04 05:17:00;;;;;;;9.77;7.20;;;;;;;;;;6221618;23;20330;-84
2021/07/04 05:19:27;;;;;;;10.38;6.88;;;;;;;;;;6222084;23;20024;-84
2021/07/04 05:21:54;;;;;;;8.13;6.40;;;;;;;;;;6249969;23;20285;-86
2021/07/04 05:24:20;;;;;;;9.63;7.05;;;;;;;;;;6220930;23;20028;-84
2021/07/04 05:26:47;;;;;;;8.38;6.60;;;;;;;;;;6246624;23;20024;-84
2021/07/04 05:29:13;;;;;;;7.25;6.30;;;;;;;;;;6249218;23;20069;-84
2021/07/04 05:31:43;;;;;;;9.35;6.45;;;;;;;;;;6220975;23;20055;-84
2021/07/04 05:34:09;;;;;;;8.68;6.80;;;;;;;;;;6249043;23;20305;-85
2021/07/04 05:36:36;;;;;;;7.90;6.10;;;;;;;;;;6221642;23;20070;-85
2021/07/04 05:39:03;;;;;;;10.52;6.75;;;;;;;;;;6220871;23;20284;-84
2021/07/04 05:41:35;;;;;;;11.25;6.90;;;;;;;;;;6220739;23;20028;-85
2021/07/04 05:44:02;;;;;;;8.73;6.70;;;;;;;;;;6249569;23;20441;-84
2021/07/04 05:46:29;;;;;;;9.65;6.30;;;;;;;;;;6223889;23;20028;-84
2021/07/04 05:48:59;;;;;;;7.40;6.10;;;;;;;;;;6250610;23;20126;-84
2021/07/04 05:51:35;;;;;;;11.98;6.60;;;;;;;;;;6222897;23;20235;-84
2021/07/04 05:54:01;;;;;;;8.15;6.45;;;;;;;;;;6249116;23;20316;-85
2021/07/04 05:56:28;;;;;;;10.10;7.10;;;;;;;;;;6247437;23;20108;-85
2021/07/04 05:58:54;;;;;;;8.25;6.53;;;;;;;;;;6248676;23;20231;-84
2021/07/04 06:01:23;;;;;;;11.68;7.47;;;;;;;;;;6224578;23;20024;-84
2021/07/04 06:03:50;;;;;;;9.70;6.43;;;;;;;;;;6233492;23;20190;-84
2021/07/04 06:06:16;;;;;;;8.10;6.53;;;;;;;;;;6239240;23;20016;-84
2021/07/04 06:08:43;;;;;;;7.50;6.30;;;;;;;;;;6229735;23;20330;-85
2021/07/04 06:11:09;;;;;;;10.20;6.95;;;;;;;;;;6245881;23;20334;-84
2021/07/04 06:13:36;;;;;;;9.40;7.47;;;;;;;;;;6220209;23;20028;-85
2021/07/04 06:16:03;;;;;;;8.85;6.15;;;;;;;;;;6219616;23;20090;-85
2021/07/04 06:18:29;;;;;;;7.38;6.10;;;;;;;;;;6245562;23;20031;-85
2021/07/04 06:20:56;;;;;;;7.72;6.88;;;;;;;;;;6213857;23;20319;-85
2021/07/04 06:23:23;;;;;;;10.07;6.72;;;;;;;;;;6214104;23;20314;-85
2021/07/04 06:25:49;;;;;;;9.43;7.43;;;;;;;;;;6215072;23;20459;-85
2021/07/04 06:28:16;;;;;;;13.35;7.43;;;;;;;;;;6218296;23;20035;-85
2021/07/04 06:30:42;;;;;;;8.55;6.82;;;;;;;;;;6218813;23;20036;-85
2021/07/04 06:33:09;;;;;;;7.88;6.40;;;;;;;;;;6220700;23;20025;-85
2021/07/04 06:35:35;;;;;;;9.48;7.15;;;;;;;;;;6219152;23;20025;-85
2021/07/04 06:38:02;;;;;;;10.05;7.90;;;;;;;;;;6216186;23;20029;-85
2021/07/04 06:40:28;;;;;;;8.88;7.40;;;;;;;;;;6215611;23;20272;-85
2021/07/04 06:43:01;;;;;;;11.35;7.43;;;;;;;;;;6216217;23;20029;-84
2021/07/04 06:45:27;;;;;;;11.88;8.15;;;;;;;;;;6217207;23;20035;-84
2021/07/04 06:47:54;;;;;;;14.38;7.82;;;;;;;;;;6215775;23;20260;-84
2021/07/04 06:50:21;;;;;;;12.50;8.02;;;;;;;;;;6216954;23;20029;-84
2021/07/04 06:53:00;;;;;;;11.02;7.38;;;;;;;;;;6215155;23;20082;-84
2021/07/04 06:55:26;;;;;;;13.18;8.27;;;;;;;;;;6215218;23;20087;-85
2021/07/04 06:57:53;;;;;;;9.25;7.63;;;;;;;;;;6216730;23;20047;-84
2021/07/04 07:00:19;;;;;;;13.02;8.15;;;;;;;;;;6219383;23;20024;-84
2021/07/04 07:02:47;;;;;;;9.25;7.53;;;;;;;;;;6220374;23;20044;-85
2021/07/04 07:05:14;;;;;;;12.32;8.15;;;;;;;;;;6218732;23;20079;-84
2021/07/04 07:07:40;;;;;;;11.60;7.55;;;;;;;;;;6217888;23;20134;-84
2021/07/04 07:10:13;;;;;;;9.23;7.53;;;;;;;;;;6218149;23;20029;-84
2021/07/04 07:12:40;;;;;;;10.00;7.60;;;;;;;;;;6216766;23;20056;-84
2021/07/04 07:15:09;;;;;;;9.85;7.50;;;;;;;;;;6217175;23;20071;-85
2021/07/04 07:17:36;;;;;;;9.73;6.95;;;;;;;;;;6214809;23;20044;-85
2021/07/04 07:20:04;;;;;;;10.80;7.25;;;;;;;;;;6213842;23;20025;-85
2021/07/04 07:22:30;;;;;;;9.02;6.43;;;;;;;;;;6215566;23;20052;-85
2021/07/04 07:24:57;;;;;;;8.95;7.55;;;;;;;;;;6218281;23;20124;-84
2021/07/04 07:27:30;;;;;;;8.00;7.00;;;;;;;;;;6222974;22;20489;-86
2021/07/04 07:30:11;;;;;;;10.57;7.35;;;;;;;;;;6215451;23;20024;-84
2021/07/04 07:32:38;;;;;;;9.95;7.65;;;;;;;;;;6213970;23;20127;-84
2021/07/04 07:35:07;;;;;;;12.60;7.07;;;;;;;;;;6214027;23;20024;-85
2021/07/04 07:37:34;;;;;;;17.80;7.40;;;;;;;;;;6215966;23;20300;-85
2021/07/04 07:40:02;;;;;;;10.30;8.15;;;;;;;;;;6215902;23;20051;-85
2021/07/04 07:42:29;;;;;;;9.38;8.00;;;;;;;;;;6214194;23;20060;-85
2021/07/04 07:45:15;;;;;;;9.90;7.28;;;;;;;;;;6213621;23;20032;-84
2021/07/04 07:47:44;;;;;;;11.60;7.32;;;;;;;;;;6215068;23;20183;-85
2021/07/04 07:50:12;;;;;;;11.07;7.57;;;;;;;;;;6214323;23;20028;-85
2021/07/04 07:52:39;;;;;;;11.30;7.70;;;;;;;;;;6212462;23;20146;-85
2021/07/04 07:55:07;;;;;;;14.43;8.48;;;;;;;;;;6212120;23;20079;-85
2021/07/04 07:57:33;;;;;;;17.17;8.18;;;;;;;;;;6211012;23;20029;-84
2021/07/04 08:00:04;;;;;;;12.57;9.63;;;;;;;;;;6210801;23;20051;-84
2021/07/04 08:02:31;;;;;;;12.27;9.88;;;;;;;;;;6211045;23;20661;-84
2021/07/04 08:04:58;;;;;;;14.88;10.25;;;;;;;;;;6212434;23;20474;-84
2021/07/04 08:07:24;;;;;;;16.55;9.43;;;;;;;;;;6213857;23;20056;-85
2021/07/04 08:09:51;;;;;;;14.05;9.52;;;;;;;;;;6214262;23;20035;-83
2021/07/04 08:12:17;;;;;;;11.73;9.45;;;;;;;;;;6208787;23;20024;-83
2021/07/04 08:14:47;;;;;;;14.82;10.35;;;;;;;;;;6208090;23;20024;-82
2021/07/04 08:17:14;;;;;;;13.23;10.38;;;;;;;;;;6210668;23;20383;-82
2021/07/04 08:19:40;;;;;;;11.68;10.48;;;;;;;;;;6213978;23;20059;-84
2021/07/04 08:22:11;;;;;;;15.68;10.90;;;;;;;;;;6215975;23;20063;-84
2021/07/04 08:24:38;;;;;;;15.02;11.02;;;;;;;;;;6242041;23;20039;-83
2021/07/04 08:27:05;;;;;;;15.63;11.55;;;;;;;;;;6246295;23;20290;-84
2021/07/04 08:29:38;;;;;;;15.75;10.60;;;;;;;;;;6215016;23;20031;-85
2021/07/04 08:32:05;;;;;;;13.73;10.55;;;;;;;;;;6217515;23;20062;-83
2021/07/04 08:34:31;;;;;;;11.70;10.23;;;;;;;;;;6214345;23;20055;-84
2021/07/04 08:36:58;;;;;;;15.60;10.23;;;;;;;;;;6214094;23;20028;-84
2021/07/04 08:39:25;;;;;;;12.85;10.45;;;;;;;;;;6243552;23;20039;-84
2021/07/04 08:41:53;;;;;;;12.18;9.90;;;;;;;;;;6240662;23;20477;-84
2021/07/04 08:44:22;;;;;;;12.95;10.32;;;;;;;;;;6213838;23;20636;-85
2021/07/04 08:46:49;;;;;;;13.25;9.13;;;;;;;;;;6217604;23;20039;-86
2021/07/04 08:49:16;;;;;;;14.70;9.85;;;;;;;;;;6216690;23;20031;-86
2021/07/04 08:51:43;;;;;;;12.88;9.80;;;;;;;;;;6244079;23;20031;-85
2021/07/04 08:54:09;;;;;;;13.60;9.20;;;;;;;;;;6216040;23;20024;-85
2021/07/04 08:56:50;;;;;;;11.38;9.73;;;;;;;;;;6242563;23;20035;-86
2021/07/04 08:59:16;;;;;;;13.95;8.70;;;;;;;;;;6216890;23;20031;-86
2021/07/04 09:01:49;;;;;;;11.18;8.85;;;;;;;;;;6241655;23;20275;-86
2021/07/04 09:04:20;;;;;;;11.65;8.98;;;;;;;;;;6240434;23;20083;-86
2021/07/04 09:06:55;;;;;;;11.20;9.07;;;;;;;;;;6243962;23;20322;-86
2021/07/04 09:09:30;;;;;;;11.65;9.57;;;;;;;;;;6240470;23;20186;-85
2021/07/04 09:12:02;;;;;;;9.07;7.80;;;;;;;;;;6240823;23;20226;-86
2021/07/04 09:14:30;;;;;;;10.25;9.00;;;;;;;;;;6212930;23;20265;-86
2021/07/04 09:17:00;;;;;;;10.95;8.43;;;;;;;;;;6241577;23;20024;-86
2021/07/04 09:19:27;;;;;;;11.43;7.90;;;;;;;;;;6216683;23;20086;-86
2021/07/04 09:22:10;;;;;;;12.73;7.90;;;;;;;;;;6217043;23;20024;-86
2021/07/04 09:24:38;;;;;;;13.77;8.15;;;;;;;;;;6217710;23;20024;-86
2021/07/04 09:27:05;;;;;;;12.07;8.23;;;;;;;;;;6243335;23;20077;-86
2021/07/04 09:29:40;;;;;;;10.85;8.93;;;;;;;;;;6245671;23;20086;-86
2021/07/04 09:32:10;;;;;;;12.15;8.80;;;;;;;;;;6222384;23;20024;-86
2021/07/04 09:34:37;;;;;;;13.63;9.35;;;;;;;;;;6219960;23;20028;-86
2021/07/04 09:37:13;;;;;;;10.65;8.70;;;;;;;;;;6219519;23;20512;-86
2021/07/04 09:39:39;;;;;;;11.68;9.23;;;;;;;;;;6220843;23;20040;-86
2021/07/04 09:42:07;;;;;;;16.00;8.50;;;;;;;;;;6248126;23;20024;-86
2021/07/04 09:44:34;;;;;;;12.70;9.05;;;;;;;;;;6247198;23;20074;-85
2021/07/04 09:47:30;;;;;;;16.40;9.18;;;;;;;;;;6221376;23;20025;-86
2021/07/04 09:50:04;;;;;;;11.73;8.88;;;;;;;;;;6218442;22;20028;-85
2021/07/04 09:52:31;;;;;;;9.40;8.23;;;;;;;;;;6237338;22;20019;-85
2021/07/04 09:55:08;;;;;;;11.23;8.50;;;;;;;;;;6222870;23;20402;-85
2021/07/04 09:57:55;;;;;;;12.95;8.65;;;;;;;;;;6220151;23;20024;-85
2021/07/04 10:00:28;;;;;;;19.52;9.27;;;;;;;;;;6244404;23;20024;-86
2021/07/04 10:03:14;;;;;;;14.43;9.32;;;;;;;;;;6243417;23;20070;-86
2021/07/04 10:05:44;;;;;;;;;;;;;;;;;;6216147;23;20028;-85
2021/07/04 10:08:17;;;;;;;14.00;9.77;;;;;;;;;;6240324;23;20339;-85
2021/07/04 10:10:49;;;;;;;11.70;8.27;;;;;;;;;;6240178;23;20032;-86
2021/07/04 10:13:22;;;;;;;13.25;8.73;;;;;;;;;;6217287;23;20024;-85
2021/07/04 10:15:49;;;;;;;14.07;8.40;;;;;;;;;;6237197;23;20329;-85
2021/07/04 10:18:17;;;;;;;11.50;7.03;;;;;;;;;;6211309;23;20187;-86
2021/07/04 10:20:43;;;;;;;7.30;6.00;;;;;;;;;;6213173;23;20323;-85
2021/07/04 10:23:11;;;;;;;11.60;6.97;;;;;;;;;;6240800;23;20028;-84
2021/07/04 10:25:38;;;;;;;8.55;6.18;;;;;;;;;;6215311;23;20228;-84
2021/07/04 10:28:04;;;;;;;12.07;6.32;;;;;;;;;;6218068;23;20051;-84
2021/07/04 10:30:32;;;;;;;8.15;6.57;;;;;;;;;;6214636;23;20054;-86
2021/07/04 10:33:10;;;;;;;8.55;6.25;;;;;;;;;;6212653;23;20074;-85
2021/07/04 10:35:59;;;;;;;9.13;8.10;;;;;;;;;;6217142;23;20428;-85
2021/07/04 10:38:49;;;;;;;9.95;7.25;;;;;;;;;;6242955;23;20067;-84
2021/07/04 10:41:26;;;;;;;13.20;7.97;;;;;;;;;;6239151;23;20452;-85
2021/07/04 10:43:58;;;;;;;9.27;8.07;;;;;;;;;;6240068;23;20378;-86
2021/07/04 10:46:41;;;;;;;14.00;8.88;;;;;;;;;;6219748;23;20081;-85
2021/07/04 10:49:16;;;;;;;13.05;9.23;;;;;;;;;;6215937;23;20082;-85
2021/07/04 10:51:59;;;;;;;13.60;9.20;;;;;;;;;;6242108;23;20262;-86
2021/07/04 10:54:44;;;;;;;14.02;10.75;;;;;;;;;;6214264;23;20028;-86
2021/07/04 10:57:11;;;;;;;18.48;10.73;;;;;;;;;;6215434;23;20020;-84
2021/07/04 10:59:49;;;;;;;14.43;10.27;;;;;;;;;;6213031;23;20322;-86
2021/07/04 11:02:34;;;;;;;13.88;10.63;;;;;;;;;;6238933;23;20024;-85
2021/07/04 11:05:01;;;;;;;13.95;9.50;;;;;;;;;;6216320;23;20024;-86
2021/07/04 11:07:47;;;;;;;14.25;9.55;;;;;;;;;;6241774;23;20108;-85
2021/07/04 11:10:14;;;;;;;;;;;;;;;;;;6214198;23;20032;-85
2021/07/04 11:12:40;;;;;;;11.20;8.50;;;;;;;;;;6239317;23;19916;-85
2021/07/04 11:15:15;;;;;;;12.35;8.70;;;;;;;;;;6242721;23;20066;-85
2021/07/04 11:17:55;;;;;;;13.15;8.27;;;;;;;;;;6235874;23;20451;-86
2021/07/04 11:20:22;;;;;;;12.35;8.27;;;;;;;;;;6238394;23;20353;-85
2021/07/04 11:22:58;;;;;;;10.45;7.85;;;;;;;;;;6237714;23;20241;-86
2021/07/04 11:25:25;;;;;;;10.90;7.95;;;;;;;;;;6240581;23;20154;-85
2021/07/04 11:28:10;;;;;;;13.65;8.27;;;;;;;;;;6217717;23;20040;-86
2021/07/04 11:30:37;;;;;;;13.50;8.55;;;;;;;;;;6219674;23;20062;-84
2021/07/04 11:33:21;;;;;;;10.18;7.75;;;;;;;;;;6245957;23;20219;-85
2021/07/04 11:35:48;;;;;;;7.90;6.80;;;;;;;;;;6243255;23;20035;-85
2021/07/04 11:38:15;;;;;;;9.57;8.00;;;;;;;;;;6217478;23;20028;-85
2021/07/04 11:40:43;;;;;;;12.90;6.97;;;;;;;;;;6215365;23;20028;-85
2021/07/04 11:43:20;;;;;;;12.38;8.02;;;;;;;;;;6216151;23;20085;-85
2021/07/04 11:45:49;;;;;;;9.73;7.70;;;;;;;;;;6215949;23;20023;-85
2021/07/04 11:48:17;;;;;;;9.75;7.00;;;;;;;;;;6240819;23;20028;-85
2021/07/04 11:50:44;;;;;;;9.85;7.18;;;;;;;;;;6217041;23;20378;-85
2021/07/04 11:53:11;;;;;;;9.73;6.43;;;;;;;;;;6218157;23;20046;-86
2021/07/04 11:55:58;;;;;;;6.40;5.40;;;;;;;;;;6244313;23;20032;-86
2021/07/04 11:58:28;;;;;;;7.30;6.10;;;;;;;;;;6219997;23;20374;-87
2021/07/04 12:00:56;;;;;;;10.40;4.63;;;;;;;;;;6247437;23;20414;-86
2021/07/04 12:03:24;;;;;;;7.32;5.68;;;;;;;;;;6219423;23;20202;-86
2021/07/04 12:05:51;;;;;;;7.03;4.85;;;;;;;;;;6244666;23;20016;-86
2021/07/04 12:08:19;;;;;;;8.45;5.28;;;;;;;;;;6245085;23;20024;-87
2021/07/04 12:10:49;;;;;;;6.72;4.63;;;;;;;;;;6244382;23;20063;-87
2021/07/04 12:13:16;;;;;;;9.77;5.20;;;;;;;;;;6245869;23;20291;-85
2021/07/04 12:15:48;;;;;;;10.32;4.88;;;;;;;;;;6216966;23;20094;-87
2021/07/04 12:18:16;;;;;;;8.23;5.60;;;;;;;;;;6244559;23;20405;-85
2021/07/04 12:20:43;;;;;;;9.30;4.60;;;;;;;;;;6215153;23;20020;-85
2021/07/04 12:23:12;;;;;;;4.80;3.88;;;;;;;;;;6219105;23;20025;-86
2021/07/04 12:25:42;;;;;;;5.53;3.80;;;;;;;;;;6215947;23;20076;-87
2021/07/04 12:28:10;;;;;;;4.47;3.63;;;;;;;;;;6220607;23;20024;-85
2021/07/04 12:30:46;;;;;;;5.50;3.33;;;;;;;;;;6215474;23;20249;-88
2021/07/04 12:33:20;;;;;;;3.83;3.40;;;;;;;;;;6220025;23;20279;-87
2021/07/04 12:35:47;;;;;;;3.97;3.42;;;;;;;;;;6212324;23;20280;-87
2021/07/04 12:38:14;;;;;;;3.95;3.33;;;;;;;;;;6209859;23;20028;-85
2021/07/04 12:40:54;;;;;;;5.00;3.30;;;;;;;;;;6211500;23;20106;-86
2021/07/04 12:43:22;;;;;;;4.10;3.53;;;;;;;;;;6212499;23;20078;-86
2021/07/04 12:45:53;;;;;;;5.00;3.53;;;;;;;;;;6210828;23;20048;-85
2021/07/04 12:48:20;;;;;;;3.45;3.15;;;;;;;;;;6212126;23;20095;-87
2021/07/04 12:50:47;;;;;;;4.03;3.53;;;;;;;;;;6213759;23;20118;-86
2021/07/04 12:53:14;;;;;;;4.55;3.80;;;;;;;;;;6212894;23;20176;-86
2021/07/04 12:55:52;;;;;;;5.03;3.50;;;;;;;;;;6213450;23;20366;-86
2021/07/04 12:58:22;;;;;;;3.95;3.30;;;;;;;;;;6215721;23;20017;-87
2021/07/04 13:00:50;;;;;;;3.80;3.38;;;;;;;;;;6216066;23;20042;-88
2021/07/04 13:03:36;;;;;;;3.55;2.70;;;;;;;;;;6216390;23;20063;-86
2021/07/04 13:06:05;;;;;;;4.38;3.10;;;;;;;;;;6220416;23;20299;-87
2021/07/04 13:08:33;;;;;;;3.20;2.90;;;;;;;;;;6214758;23;20025;-86
2021/07/04 13:11:01;;;;;;;4.47;2.95;;;;;;;;;;6225909;22;20016;-87
2021/07/04 13:13:27;;;;;;;4.82;3.40;;;;;;;;;;6226420;22;20167;-86
2021/07/04 13:15:54;;;;;;;3.58;2.85;;;;;;;;;;6213389;23;20028;-86
2021/07/04 13:18:25;;;;;;;3.92;2.92;;;;;;;;;;6215635;23;20012;-85
2021/07/04 13:20:52;;;;;;;2.97;2.70;;;;;;;;;;6230449;23;20024;-87
2021/07/04 13:23:18;;;;;;;4.57;2.42;;;;;;;;;;6216237;23;20062;-87
2021/07/04 13:25:48;;;;;;;3.28;2.92;;;;;;;;;;6228626;23;20024;-87
2021/07/04 13:28:17;;;;;;;3.03;2.70;;;;;;;;;;6258317;23;20217;-85
2021/07/04 13:30:47;;;;;;;3.28;2.83;;;;;;;;;;6253853;23;20031;-87
2021/07/04 13:33:25;;;;;;;6.53;2.90;;;;;;;;;;6244321;23;20067;-87
2021/07/04 13:35:52;;;;;;;3.33;2.78;;;;;;;;;;6247126;23;20028;-88
2021/07/04 13:38:18;;;;;;;3.40;3.10;;;;;;;;;;6248425;23;20040;-87
2021/07/04 13:40:46;;;;;;;3.28;2.95;;;;;;;;;;6217819;23;20031;-86
2021/07/04 13:43:13;;;;;;;5.97;2.63;;;;;;;;;;6248514;23;20028;-88
2021/07/04 13:45:50;;;;;;;3.75;2.60;;;;;;;;;;6215796;23;20381;-86
2021/07/04 13:48:18;;;;;;;4.13;3.08;;;;;;;;;;6216789;23;20280;-87
2021/07/04 13:50:55;;;;;;;3.75;3.03;;;;;;;;;;6238784;23;20016;-86
2021/07/04 13:53:22;;;;;;;5.07;3.10;;;;;;;;;;6214418;23;20048;-86
2021/07/04 13:55:49;;;;;;;5.30;3.70;;;;;;;;;;6212673;23;20035;-86
2021/07/04 13:58:16;;;;;;;5.65;3.22;;;;;;;;;;6217767;23;20024;-86
2021/07/04 14:00:44;;;;;;;3.95;3.15;;;;;;;;;;6216683;23;20083;-88
2021/07/04 14:03:10;;;;;;;4.18;3.58;;;;;;;;;;6239410;23;20024;-86
2021/07/04 14:05:37;;;;;;;3.85;3.00;;;;;;;;;;6244808;23;20024;-87
2021/07/04 14:08:04;;;;;;;4.72;2.92;;;;;;;;;;6241559;23;20032;-87
2021/07/04 14:10:31;;;;;;;3.78;3.38;;;;;;;;;;6213955;23;20208;-87
2021/07/04 14:12:58;;;;;;;4.70;3.45;;;;;;;;;;6216969;23;20031;-88
2021/07/04 14:15:24;;;;;;;5.53;3.15;;;;;;;;;;6219938;23;20183;-87
2021/07/04 14:17:51;;;;;;;4.30;3.30;;;;;;;;;;6241199;23;20171;-86
2021/07/04 14:20:20;;;;;;;4.00;3.60;;;;;;;;;;6216322;23;20102;-88
2021/07/04 14:22:50;;;;;;;4.13;3.58;;;;;;;;;;6213161;23;20337;-87
2021/07/04 14:25:17;;;;;;;4.65;3.40;;;;;;;;;;6224461;22;20070;-88
2021/07/04 14:27:45;;;;;;;7.70;4.00;;;;;;;;;;6248821;23;20078;-86
2021/07/04 14:30:13;;;;;;;3.78;3.47;;;;;;;;;;6250132;22;20028;-86
2021/07/04 14:32:44;;;;;;;5.28;3.45;;;;;;;;;;6228066;22;20055;-88
2021/07/04 14:35:11;;;;;;;5.85;3.78;;;;;;;;;;6217201;23;20219;-86
2021/07/04 14:37:38;;;;;;;4.25;3.85;;;;;;;;;;6219770;22;20004;-86
2021/07/04 14:40:15;;;;;;;6.47;3.92;;;;;;;;;;6217894;23;20035;-87
2021/07/04 14:42:42;;;;;;;6.13;4.07;;;;;;;;;;6241059;23;20024;-86
2021/07/04 14:45:09;;;;;;;5.30;4.20;;;;;;;;;;6224869;22;20443;-87
2021/07/04 14:47:36;;;;;;;8.50;4.90;;;;;;;;;;6212405;23;20372;-86
2021/07/04 14:50:04;;;;;;;6.32;4.55;;;;;;;;;;6239992;23;20028;-86